Time;durP1;ratioP1;P1;durP2;ratioP2;P2;SDS_P1;SDS_P2;PMS_P1;PMS_P2;Temp;Humidity;BMP_temperature;BMP_pressure;BME280_temperature;BME280_humidity;BME280_pressure;Samples;Min_cycle;Max_cycle;Signal;HPM_P1;HPM_P2
2020/12/11 00:01:37;;;;;;;28.25;19.13;;;;;;;-144.15;0.00;65763.66;10236134;28;20072;-71
2020/12/11 00:06:35;;;;;;;37.05;24.77;;;;;;;-144.15;0.00;65763.66;10236561;28;20061;-70
2020/12/11 00:11:33;;;;;;;31.80;22.52;;;;;;;-144.15;0.00;65763.66;10235949;28;20063;-70
2020/12/11 00:16:30;;;;;;;24.60;17.40;;;;;;;-144.15;0.00;65763.66;10236693;28;20064;-70
2020/12/11 00:21:37;;;;;;;32.63;21.55;;;;;;;-144.15;0.00;65763.66;10235717;28;20076;-69
2020/12/11 00:26:35;;;;;;;29.92;19.30;;;;;;;-144.15;0.00;65763.66;10234936;28;20077;-70
2020/12/11 00:31:33;;;;;;;21.15;16.10;;;;;;;-144.15;0.00;65763.66;10234371;28;20045;-70
2020/12/11 00:36:32;;;;;;;21.83;15.30;;;;;;;-144.15;0.00;65763.66;10236025;28;20049;-71
2020/12/11 00:41:30;;;;;;;22.45;15.98;;;;;;;-144.15;0.00;65763.66;10235761;28;20141;-71
2020/12/11 00:46:28;;;;;;;19.85;14.70;;;;;;;-144.15;0.00;65763.66;10235499;28;20414;-70
2020/12/11 00:51:26;;;;;;;20.80;14.80;;;;;;;-144.15;0.00;65763.66;10250708;28;20045;-70
2020/12/11 00:56:25;;;;;;;25.10;17.25;;;;;;;-144.15;0.00;65763.66;10234251;28;20049;-71
2020/12/11 01:01:23;;;;;;;20.83;15.77;;;;;;;-144.15;0.00;65763.66;10238068;28;20088;-69
2020/12/11 01:06:21;;;;;;;19.35;13.93;;;;;;;-144.15;0.00;65763.66;10243804;28;20485;-71
2020/12/11 01:11:19;;;;;;;14.68;12.15;;;;;;;-144.15;0.00;65763.66;10243483;28;20088;-70
2020/12/11 01:16:17;;;;;;;16.75;11.65;;;;;;;-144.15;0.00;65763.66;10242368;28;20054;-70
2020/12/11 01:21:16;;;;;;;12.30;10.63;;;;;;;-144.15;0.00;65763.66;10242591;28;20075;-70
2020/12/11 01:26:13;;;;;;;13.90;11.35;;;;;;;-144.15;0.00;65763.66;10242259;28;20499;-70
2020/12/11 01:31:17;;;;;;;16.75;12.90;;;;;;;-144.15;0.00;65763.66;10243068;28;20445;-70
2020/12/11 01:36:22;;;;;;;14.48;11.68;;;;;;;-144.15;0.00;65763.66;10242216;28;20042;-70
2020/12/11 01:41:21;;;;;;;29.77;12.48;;;;;;;-144.15;0.00;65763.66;10242113;28;20069;-70
2020/12/11 01:46:21;;;;;;;57.67;13.90;;;;;;;-144.15;0.00;65763.66;10241740;28;20088;-70
2020/12/11 01:51:19;;;;;;;41.05;14.45;;;;;;;-144.15;0.00;65763.66;10241878;28;20072;-70
2020/12/11 01:56:20;;;;;;;23.40;13.55;;;;;;;-144.15;0.00;65763.66;10241618;28;20072;-69
2020/12/11 02:01:17;;;;;;;22.58;13.00;;;;;;;-144.15;0.00;65763.66;10241131;28;20104;-71
2020/12/11 02:06:16;;;;;;;19.85;13.02;;;;;;;-144.15;0.00;65763.66;10241009;28;20069;-70
2020/12/11 02:11:18;;;;;;;21.20;12.82;;;;;;;-144.15;0.00;65763.66;10240952;28;20092;-70
2020/12/11 02:16:20;;;;;;;18.52;10.52;;;;;;;-144.15;0.00;65763.66;10240341;28;20081;-69
2020/12/11 02:21:19;;;;;;;15.63;10.32;;;;;;;-144.15;0.00;65763.66;10239073;28;20081;-70
2020/12/11 02:26:17;;;;;;;21.58;15.18;;;;;;;-144.15;0.00;65763.66;10239712;28;20045;-70
2020/12/11 02:31:15;;;;;;;24.50;14.48;;;;;;;-144.15;0.00;65763.66;10240835;28;20073;-71
2020/12/11 02:36:13;;;;;;;30.40;16.88;;;;;;;-144.15;0.00;65763.66;10240141;28;20048;-70
2020/12/11 02:41:11;;;;;;;42.58;20.77;;;;;;;-144.15;0.00;65763.66;10238420;28;20057;-70
2020/12/11 02:46:09;;;;;;;87.90;24.17;;;;;;;-144.15;0.00;65763.66;10239618;28;20470;-70
2020/12/11 02:51:07;;;;;;;33.25;18.67;;;;;;;-144.15;0.00;65763.66;10239223;28;20076;-70
2020/12/11 02:56:05;;;;;;;38.28;18.38;;;;;;;-144.15;0.00;65763.66;10238806;28;20510;-70
2020/12/11 03:01:03;;;;;;;30.42;17.25;;;;;;;-144.15;0.00;65763.66;10239066;28;20073;-70
2020/12/11 03:06:01;;;;;;;27.55;13.10;;;;;;;-144.15;0.00;65763.66;10238982;28;20049;-70
2020/12/11 03:10:59;;;;;;;127.25;32.20;;;;;;;-144.15;0.00;65763.66;10238474;28;20092;-71
2020/12/11 03:15:57;;;;;;;47.42;27.25;;;;;;;-144.15;0.00;65763.66;10238313;28;20073;-71
2020/12/11 03:20:55;;;;;;;43.70;20.30;;;;;;;-144.15;0.00;65763.66;10238182;28;20536;-70
2020/12/11 03:25:53;;;;;;;36.90;17.90;;;;;;;-144.15;0.00;65763.66;10237822;28;20465;-70
2020/12/11 03:30:51;;;;;;;106.45;18.90;;;;;;;-144.15;0.00;65763.66;10237969;28;20050;-69
2020/12/11 03:35:49;;;;;;;34.30;16.13;;;;;;;-144.15;0.00;65763.66;10237504;28;20073;-69
2020/12/11 03:40:47;;;;;;;23.65;16.27;;;;;;;-144.15;0.00;65763.66;10237071;28;20073;-70
2020/12/11 03:45:45;;;;;;;19.60;14.07;;;;;;;-144.15;0.00;65763.66;10236930;28;20045;-70
2020/12/11 03:50:43;;;;;;;12.93;9.02;;;;;;;-144.15;0.00;65763.66;10237304;28;20402;-70
2020/12/11 03:55:41;;;;;;;13.98;10.98;;;;;;;-144.15;0.00;65763.66;10237184;28;20418;-70
2020/12/11 04:00:39;;;;;;;15.18;9.02;;;;;;;-144.15;0.00;65763.66;10236320;28;20073;-70
2020/12/11 04:05:38;;;;;;;12.77;10.27;;;;;;;-144.15;0.00;65763.66;10236275;28;20041;-70
2020/12/11 04:10:35;;;;;;;12.65;10.27;;;;;;;-144.15;0.00;65763.66;10236650;28;20056;-70
2020/12/11 04:15:33;;;;;;;15.73;11.05;;;;;;;-144.15;0.00;65763.66;10235095;28;20156;-70
2020/12/11 04:20:31;;;;;;;15.35;11.02;;;;;;;-144.15;0.00;65763.66;10235886;28;20073;-70
2020/12/11 04:25:29;;;;;;;13.55;9.98;;;;;;;-144.15;0.00;65763.66;10235308;28;20073;-70
2020/12/11 04:30:27;;;;;;;14.35;9.63;;;;;;;-144.15;0.00;65763.66;10235700;28;20057;-71
2020/12/11 04:35:25;;;;;;;15.10;11.30;;;;;;;-144.15;0.00;65763.66;10235029;28;20081;-72
2020/12/11 04:40:22;;;;;;;19.02;14.48;;;;;;;-144.15;0.00;65763.66;10226269;28;20073;-72
2020/12/11 04:45:23;;;;;;;14.52;12.15;;;;;;;-144.15;0.00;65763.66;10261191;28;20068;-72
2020/12/11 04:50:24;;;;;;;12.90;11.50;;;;;;;-144.15;0.00;65763.66;10234729;28;20077;-73
2020/12/11 04:55:22;;;;;;;12.93;10.40;;;;;;;-144.15;0.00;65763.66;10243011;28;20068;-74
2020/12/11 05:00:23;;;;;;;12.10;8.95;;;;;;;-144.15;0.00;65763.66;10235467;28;20077;-74
2020/12/11 05:05:21;;;;;;;11.68;8.23;;;;;;;-144.15;0.00;65763.66;10234091;28;20053;-75
2020/12/11 05:10:19;;;;;;;15.27;11.55;;;;;;;-144.15;0.00;65763.66;10233780;28;20076;-74
2020/12/11 05:15:18;;;;;;;13.80;10.55;;;;;;;-144.15;0.00;65763.66;10234519;28;20088;-74
2020/12/11 05:20:17;;;;;;;11.85;9.60;;;;;;;-144.15;0.00;65763.66;10233206;28;20088;-74
2020/12/11 05:25:23;;;;;;;9.25;7.50;;;;;;;-144.15;0.00;65763.66;10233854;28;20050;-72
2020/12/11 05:30:24;;;;;;;8.18;6.75;;;;;;;-144.15;0.00;65763.66;10233506;28;20072;-73
2020/12/11 05:35:30;;;;;;;8.50;6.35;;;;;;;-144.15;0.00;65763.66;10272269;28;20084;-75
2020/12/11 05:40:30;;;;;;;8.00;6.28;;;;;;;-144.15;0.00;65763.66;10234092;28;20076;-73
2020/12/11 05:45:28;;;;;;;7.85;7.05;;;;;;;-144.15;0.00;65763.66;10233618;28;20523;-73
2020/12/11 05:50:27;;;;;;;8.25;7.15;;;;;;;-144.15;0.00;65763.66;10238501;28;20053;-73
2020/12/11 05:55:25;;;;;;;9.95;7.75;;;;;;;-144.15;0.00;65763.66;10240513;28;20525;-72
2020/12/11 06:00:23;;;;;;;35.97;19.23;;;;;;;-144.15;0.00;65763.66;10239807;28;20072;-72
2020/12/11 06:05:23;;;;;;;94.22;66.78;;;;;;;-144.15;0.00;65763.66;10240075;28;20482;-74
2020/12/11 06:10:24;;;;;;;44.05;32.88;;;;;;;-144.15;0.00;65763.66;10240237;28;20092;-75
2020/12/11 06:15:30;;;;;;;18.75;13.98;;;;;;;-144.15;0.00;65763.66;10239308;28;20095;-75
2020/12/11 06:20:29;;;;;;;16.90;14.18;;;;;;;-144.15;0.00;65763.66;10238396;28;20479;-75
2020/12/11 06:25:29;;;;;;;50.05;37.88;;;;;;;-144.15;0.00;65763.66;10238327;28;20041;-75
2020/12/11 06:30:30;;;;;;;76.55;54.88;;;;;;;-144.15;0.00;65763.66;10238604;28;20068;-73
2020/12/11 06:35:28;;;;;;;51.95;38.95;;;;;;;-144.15;0.00;65763.66;10240192;28;20053;-75
2020/12/11 06:40:48;;;;;;;51.28;34.83;;;;;;;-144.15;0.00;65763.66;10238456;28;20034;-75
2020/12/11 06:45:46;;;;;;;71.70;48.42;;;;;;;-144.15;0.00;65763.66;10199851;28;20081;-76
2020/12/11 06:51:03;;;;;;;63.08;43.13;;;;;;;-144.15;0.00;65763.66;10238267;28;20045;-75
2020/12/11 06:56:02;;;;;;;19.25;15.85;;;;;;;-144.15;0.00;65763.66;10238913;28;20057;-75
2020/12/11 07:00:59;;;;;;;9.63;8.70;;;;;;;-144.15;0.00;65763.66;10237921;28;20084;-73
2020/12/11 07:06:09;;;;;;;26.27;17.83;;;;;;;-144.15;0.00;65763.66;10238055;28;20083;-74
2020/12/11 07:11:14;;;;;;;82.22;47.88;;;;;;;-144.15;0.00;65763.66;10237895;28;20057;-73
2020/12/11 07:16:13;;;;;;;104.15;57.78;;;;;;;-144.15;0.00;65763.66;10237442;28;20080;-74
2020/12/11 07:21:12;;;;;;;66.72;40.72;;;;;;;-144.15;0.00;65763.66;10237046;28;20507;-74
2020/12/11 07:26:11;;;;;;;33.45;21.58;;;;;;;-144.15;0.00;65763.66;10237876;28;20041;-73
2020/12/11 07:31:13;;;;;;;94.88;52.85;;;;;;;-144.15;0.00;65763.66;10240167;28;20069;-75
2020/12/11 07:36:11;;;;;;;264.30;148.30;;;;;;;-144.15;0.00;65763.66;10273032;28;20076;-74
2020/12/11 07:41:10;;;;;;;390.08;204.52;;;;;;;-144.15;0.00;65763.66;10237152;28;20084;-73
2020/12/11 07:46:09;;;;;;;168.93;110.68;;;;;;;-144.15;0.00;65763.66;10237086;28;20061;-73
2020/12/11 07:51:09;;;;;;;77.60;51.85;;;;;;;-144.15;0.00;65763.66;10236218;28;20041;-73
2020/12/11 07:56:10;;;;;;;43.97;36.30;;;;;;;-144.15;0.00;65763.66;10236387;28;20072;-74
2020/12/11 08:01:07;;;;;;;42.58;32.15;;;;;;;-144.15;0.00;65763.66;10235820;28;20458;-74
2020/12/11 08:06:12;;;;;;;40.00;29.33;;;;;;;-144.15;0.00;65763.66;10235810;28;20072;-74
2020/12/11 08:11:23;;;;;;;43.35;29.88;;;;;;;-144.15;0.00;65763.66;10234265;28;20089;-73
2020/12/11 08:16:22;;;;;;;151.63;79.38;;;;;;;-144.15;0.00;65763.66;10235446;28;20080;-73
2020/12/11 08:21:29;;;;;;;49.45;30.83;;;;;;;-144.15;0.00;65763.66;10235172;28;20081;-74
2020/12/11 08:26:37;;;;;;;87.50;61.17;;;;;;;-144.15;0.00;65763.66;10235844;28;20446;-74
2020/12/11 08:31:39;;;;;;;83.40;54.67;;;;;;;-144.15;0.00;65763.66;10241031;28;20061;-72
2020/12/11 08:36:39;;;;;;;33.22;27.90;;;;;;;-144.15;0.00;65763.66;10267782;28;20077;-74
2020/12/11 08:41:40;;;;;;;44.75;39.88;;;;;;;-144.15;0.00;65763.66;10234796;28;20085;-74
2020/12/11 08:46:52;;;;;;;50.17;33.53;;;;;;;-144.15;0.00;65763.66;10234591;28;20049;-76
2020/12/11 08:51:51;;;;;;;43.60;30.83;;;;;;;-144.15;0.00;65763.66;10233634;28;20077;-75
2020/12/11 08:56:48;;;;;;;67.15;46.20;;;;;;;-144.15;0.00;65763.66;10234628;28;20545;-74
2020/12/11 09:01:46;;;;;;;55.88;37.70;;;;;;;-144.15;0.00;65763.66;10232038;28;20073;-77
2020/12/11 09:06:44;;;;;;;58.28;40.30;;;;;;;-144.15;0.00;65763.66;10233709;28;20073;-75
2020/12/11 09:11:44;;;;;;;44.80;30.48;;;;;;;-144.15;0.00;65763.66;10233781;28;20057;-77
2020/12/11 09:16:42;;;;;;;78.88;55.08;;;;;;;-144.15;0.00;65763.66;10233435;28;20046;-75
2020/12/11 09:21:40;;;;;;;64.25;45.22;;;;;;;-144.15;0.00;65763.66;10234994;28;20080;-75
2020/12/11 09:26:38;;;;;;;104.90;70.78;;;;;;;-144.15;0.00;65763.66;10242723;28;20077;-76
2020/12/11 09:31:38;;;;;;;75.90;50.88;;;;;;;-144.15;0.00;65763.66;10247542;28;20066;-76
2020/12/11 09:36:35;;;;;;;72.20;51.35;;;;;;;-144.15;0.00;65763.66;10274219;28;20065;-76
2020/12/11 09:41:37;;;;;;;57.83;34.63;;;;;;;-144.15;0.00;65763.66;10241372;28;20069;-76
2020/12/11 09:46:41;;;;;;;83.25;48.45;;;;;;;-144.15;0.00;65763.66;10241153;28;20069;-76
2020/12/11 09:52:00;;;;;;;85.50;58.93;;;;;;;-144.15;0.00;65763.66;10240976;28;20051;-75
2020/12/11 09:56:58;;;;;;;55.65;35.85;;;;;;;-144.15;0.00;65763.66;10240885;28;20060;-75
2020/12/11 10:07:12;;;;;;;72.47;41.67;;;;;;;-144.15;0.00;65763.66;10239905;28;20041;-73
2020/12/11 10:12:11;;;;;;;53.63;28.40;;;;;;;-144.15;0.00;65763.66;10239690;28;20526;-75
2020/12/11 10:17:10;;;;;;;43.05;21.25;;;;;;;-144.15;0.00;65763.66;10240501;28;20081;-73
2020/12/11 10:22:07;;;;;;;24.70;18.05;;;;;;;-144.15;0.00;65763.66;10239389;28;20085;-75
2020/12/11 10:27:06;;;;;;;94.38;46.97;;;;;;;-144.15;0.00;65763.66;10240479;28;20455;-74
2020/12/11 10:32:04;;;;;;;56.47;35.00;;;;;;;-144.15;0.00;65763.66;10250251;28;20075;-72
2020/12/11 10:37:06;;;;;;;118.07;56.00;;;;;;;-144.15;0.00;65763.66;10267742;28;20046;-75
2020/12/11 10:42:04;;;;;;;78.10;44.60;;;;;;;-144.15;0.00;65763.66;10239253;28;20080;-74
2020/12/11 10:47:03;;;;;;;89.57;52.72;;;;;;;-144.15;0.00;65763.66;10239365;28;20080;-72
2020/12/11 10:52:01;;;;;;;48.42;35.35;;;;;;;-144.15;0.00;65763.66;10239089;28;20069;-70
2020/12/11 10:56:59;;;;;;;43.50;27.95;;;;;;;-144.15;0.00;65763.66;10238532;28;20045;-74
2020/12/11 11:01:56;;;;;;;156.45;75.38;;;;;;;-144.15;0.00;65763.66;10238772;28;20122;-73
2020/12/11 11:06:59;;;;;;;28.25;21.48;;;;;;;-144.15;0.00;65763.66;10238659;28;20107;-74
2020/12/11 11:12:03;;;;;;;22.23;16.20;;;;;;;-144.15;0.00;65763.66;10238578;28;20538;-72
2020/12/11 11:22:32;;;;;;;31.13;22.48;;;;;;;-144.15;0.00;65763.66;10237522;28;20157;-71
2020/12/11 11:27:33;;;;;;;21.88;16.25;;;;;;;-144.15;0.00;65763.66;10237280;28;20069;-72
2020/12/11 11:32:31;;;;;;;55.88;39.60;;;;;;;-144.15;0.00;65763.66;10237675;28;20077;-72
2020/12/11 11:37:30;;;;;;;36.97;27.40;;;;;;;-144.15;0.00;65763.66;10235272;28;20108;-72
2020/12/11 11:42:28;;;;;;;43.30;33.08;;;;;;;-144.15;0.00;65763.66;10237061;28;20076;-73
2020/12/11 11:47:25;;;;;;;163.20;83.55;;;;;;;-144.15;0.00;65763.66;10235870;28;20072;-73
2020/12/11 11:52:28;;;;;;;125.68;69.90;;;;;;;-144.15;0.00;65763.66;10234488;28;20061;-74
2020/12/11 11:57:27;;;;;;;82.22;53.25;;;;;;;-144.15;0.00;65763.66;10236237;28;20052;-73
2020/12/11 12:02:25;;;;;;;23.95;20.05;;;;;;;-144.15;0.00;65763.66;10236515;28;20092;-73
2020/12/11 12:07:23;;;;;;;17.70;14.70;;;;;;;-144.15;0.00;65763.66;10235941;28;20073;-73
2020/12/11 12:12:21;;;;;;;47.78;31.55;;;;;;;-144.15;0.00;65763.66;10232725;28;20088;-73
2020/12/11 12:17:27;;;;;;;32.17;28.80;;;;;;;-144.15;0.00;65763.66;10234565;28;20068;-73
2020/12/11 12:38:20;;;;;;;50.00;35.60;;;;;;;-144.15;0.00;65763.66;10254748;28;20088;-73
2020/12/11 12:43:21;;;;;;;46.92;36.25;;;;;;;-144.15;0.00;65763.66;10235193;28;20081;-73
2020/12/11 12:48:20;;;;;;;35.53;21.88;;;;;;;-144.15;0.00;65763.66;10234911;28;20406;-74
2020/12/11 12:53:17;;;;;;;21.88;17.10;;;;;;;-144.15;0.00;65763.66;10235462;28;20068;-74
2020/12/11 12:58:17;;;;;;;24.15;18.23;;;;;;;-144.15;0.00;65763.66;10234388;28;20459;-73
2020/12/11 13:08:28;;;;;;;41.28;28.58;;;;;;;-144.15;0.00;65763.66;10231477;28;20056;-74
2020/12/11 13:13:26;;;;;;;50.60;32.97;;;;;;;-144.15;0.00;65763.66;10231521;28;20562;-74
2020/12/11 13:18:25;;;;;;;67.32;54.20;;;;;;;-144.15;0.00;65763.66;10234209;28;20073;-73
2020/12/11 13:28:36;;;;;;;203.73;153.48;;;;;;;-144.15;0.00;65763.66;10234416;28;20061;-73
2020/12/11 13:33:34;;;;;;;112.72;85.82;;;;;;;-144.15;0.00;65763.66;10250561;28;20103;-73
2020/12/11 13:38:32;;;;;;;180.50;145.35;;;;;;;-144.15;0.00;65763.66;10233909;28;20045;-74
2020/12/11 13:43:30;;;;;;;89.18;69.93;;;;;;;-144.15;0.00;65763.66;10232664;28;20080;-74
2020/12/11 13:48:29;;;;;;;122.25;95.95;;;;;;;-144.15;0.00;65763.66;10231539;28;20468;-73
2020/12/11 13:53:26;;;;;;;844.15;463.73;;;;;;;-144.15;0.00;65763.66;10233961;28;20072;-73
2020/12/11 13:58:24;;;;;;;483.77;265.67;;;;;;;-144.15;0.00;65763.66;10233788;28;20119;-73
2020/12/11 14:03:22;;;;;;;372.50;197.80;;;;;;;-144.15;0.00;65763.66;10233568;28;20089;-73
2020/12/11 14:08:21;;;;;;;267.30;143.52;;;;;;;-144.15;0.00;65763.66;10233198;28;20068;-74
2020/12/11 14:13:19;;;;;;;192.48;108.43;;;;;;;-144.15;0.00;65763.66;10239899;28;20077;-73
2020/12/11 14:18:27;;;;;;;461.85;236.60;;;;;;;-144.15;0.00;65763.66;10240103;28;20132;-71
2020/12/11 14:23:26;;;;;;;466.25;221.52;;;;;;;-144.15;0.00;65763.66;10240328;28;20077;-73
2020/12/11 14:28:24;;;;;;;343.25;156.68;;;;;;;-144.15;0.00;65763.66;10239340;28;20453;-73
2020/12/11 14:33:22;;;;;;;309.50;154.15;;;;;;;-144.15;0.00;65763.66;10239504;28;20068;-72
2020/12/11 14:38:57;;;;;;;248.93;129.35;;;;;;;-144.15;0.00;65763.66;10238724;28;20080;-73
2020/12/11 14:43:42;;;;;;;212.70;109.55;;;;;;;-144.15;0.00;65763.66;10239635;28;20080;-72
2020/12/11 14:48:39;;;;;;;101.30;65.25;;;;;;;-144.15;0.00;65763.66;10237268;28;20076;-73
2020/12/11 14:53:37;;;;;;;396.83;193.35;;;;;;;-144.15;0.00;65763.66;10232361;28;20076;-73
2020/12/11 14:58:35;;;;;;;392.33;185.98;;;;;;;-144.15;0.00;65763.66;10237677;28;20479;-72
2020/12/11 15:03:33;;;;;;;524.58;231.45;;;;;;;-144.15;0.00;65763.66;10238220;28;20475;-73
2020/12/11 15:08:31;;;;;;;337.38;143.25;;;;;;;-144.15;0.00;65763.66;10237504;28;20491;-72
2020/12/11 15:13:29;;;;;;;764.08;348.23;;;;;;;-144.15;0.00;65763.66;10235262;28;20537;-71
2020/12/11 15:18:27;;;;;;;599.88;287.15;;;;;;;-144.15;0.00;65763.66;10237226;28;20076;-70
2020/12/11 15:23:26;;;;;;;231.68;110.38;;;;;;;-144.15;0.00;65763.66;10236205;28;20525;-72
2020/12/11 15:28:25;;;;;;;732.83;368.13;;;;;;;-144.15;0.00;65763.66;10236390;28;20080;-72
2020/12/11 15:33:22;;;;;;;209.98;112.35;;;;;;;-144.15;0.00;65763.66;10239494;28;20053;-71
2020/12/11 15:38:21;;;;;;;147.85;98.18;;;;;;;-144.15;0.00;65763.66;10235939;28;20068;-73
2020/12/11 15:43:20;;;;;;;228.57;137.68;;;;;;;-144.15;0.00;65763.66;10236972;28;20543;-73
2020/12/11 15:48:18;;;;;;;134.60;76.75;;;;;;;-144.15;0.00;65763.66;10237407;28;20053;-71
2020/12/11 15:53:15;;;;;;;225.98;117.30;;;;;;;-144.15;0.00;65763.66;10235987;28;20045;-70
2020/12/11 15:58:13;;;;;;;246.07;130.07;;;;;;;-144.15;0.00;65763.66;10236277;28;20085;-73
2020/12/11 16:03:12;;;;;;;140.98;85.07;;;;;;;-144.15;0.00;65763.66;10236703;28;20077;-73
2020/12/11 16:08:10;;;;;;;109.00;72.00;;;;;;;-144.15;0.00;65763.66;10235427;28;20049;-73
2020/12/11 16:13:08;;;;;;;109.15;75.28;;;;;;;-144.15;0.00;65763.66;10235048;28;20060;-73
2020/12/11 16:18:05;;;;;;;842.90;498.08;;;;;;;-144.15;0.00;65763.66;10235661;28;20159;-73
2020/12/11 16:23:04;;;;;;;239.32;126.28;;;;;;;-144.15;0.00;65763.66;10235845;28;20072;-72
2020/12/11 16:28:03;;;;;;;376.38;210.90;;;;;;;-144.15;0.00;65763.66;10234258;28;20065;-72
2020/12/11 16:33:01;;;;;;;177.15;106.75;;;;;;;-144.15;0.00;65763.66;10253019;28;20045;-72
2020/12/11 16:38:02;;;;;;;103.43;68.80;;;;;;;-144.15;0.00;65763.66;10256745;28;20056;-73
2020/12/11 16:43:16;;;;;;;106.70;74.07;;;;;;;-144.15;0.00;65763.66;10235260;28;20085;-74
2020/12/11 16:48:15;;;;;;;72.55;50.65;;;;;;;-144.15;0.00;65763.66;10234400;28;20452;-71
2020/12/11 16:53:13;;;;;;;102.22;67.15;;;;;;;-144.15;0.00;65763.66;10234315;28;20553;-72
2020/12/11 16:58:11;;;;;;;43.33;29.00;;;;;;;-144.15;0.00;65763.66;10234379;28;20468;-71
2020/12/11 17:08:31;;;;;;;57.97;37.03;;;;;;;-144.15;0.00;65763.66;10234515;28;20080;-72
2020/12/11 17:13:30;;;;;;;66.70;45.38;;;;;;;-144.15;0.00;65763.66;10234497;28;20072;-72
2020/12/11 17:18:27;;;;;;;60.35;40.30;;;;;;;-144.15;0.00;65763.66;10234490;28;20080;-73
2020/12/11 17:23:26;;;;;;;38.83;28.45;;;;;;;-144.15;0.00;65763.66;10234718;28;20085;-73
2020/12/11 17:28:25;;;;;;;61.53;46.63;;;;;;;-144.15;0.00;65763.66;10234346;28;20073;-72
2020/12/11 17:33:27;;;;;;;52.65;37.00;;;;;;;-144.15;0.00;65763.66;10255289;28;20051;-73
2020/12/11 17:38:25;;;;;;;51.72;38.05;;;;;;;-144.15;0.00;65763.66;10252204;28;20073;-73
2020/12/11 17:43:23;;;;;;;81.03;50.08;;;;;;;-144.15;0.00;65763.66;10236230;28;20089;-72
2020/12/11 17:48:21;;;;;;;130.25;81.75;;;;;;;-144.15;0.00;65763.66;10241821;28;20506;-72
2020/12/11 17:53:19;;;;;;;150.20;96.53;;;;;;;-144.15;0.00;65763.66;10241365;28;20171;-72
2020/12/11 17:58:17;;;;;;;142.57;89.65;;;;;;;-144.15;0.00;65763.66;10240677;28;20069;-72
2020/12/11 18:03:15;;;;;;;128.20;77.53;;;;;;;-144.15;0.00;65763.66;10240597;28;20041;-72
2020/12/11 18:08:12;;;;;;;119.07;70.78;;;;;;;-144.15;0.00;65763.66;10241148;28;20080;-72
2020/12/11 18:13:11;;;;;;;107.47;65.32;;;;;;;-144.15;0.00;65763.66;10240354;28;20085;-73
2020/12/11 18:18:12;;;;;;;126.78;73.63;;;;;;;-144.15;0.00;65763.66;10240797;28;20430;-73
2020/12/11 18:23:09;;;;;;;143.10;86.32;;;;;;;-144.15;0.00;65763.66;10240021;28;20473;-73
2020/12/11 18:28:07;;;;;;;163.43;100.57;;;;;;;-144.15;0.00;65763.66;10240623;28;20491;-72
2020/12/11 18:33:06;;;;;;;172.88;102.40;;;;;;;-144.15;0.00;65763.66;10257761;28;20075;-72
2020/12/11 18:38:05;;;;;;;185.43;115.68;;;;;;;-144.15;0.00;65763.66;10261174;28;20080;-74
2020/12/11 18:43:02;;;;;;;159.48;99.68;;;;;;;-144.15;0.00;65763.66;10239453;28;20052;-73
2020/12/11 18:48:00;;;;;;;140.80;82.97;;;;;;;-144.15;0.00;65763.66;10239152;28;20080;-73
2020/12/11 18:52:59;;;;;;;190.00;100.20;;;;;;;-144.15;0.00;65763.66;10238963;28;20474;-73
2020/12/11 18:57:57;;;;;;;188.45;108.57;;;;;;;-144.15;0.00;65763.66;10238608;28;20396;-73
2020/12/11 19:02:54;;;;;;;174.18;90.57;;;;;;;-144.15;0.00;65763.66;10237207;28;20249;-73
2020/12/11 19:07:52;;;;;;;167.38;75.90;;;;;;;-144.15;0.00;65763.66;10238900;28;20521;-72
2020/12/11 19:12:53;;;;;;;132.93;61.53;;;;;;;-144.15;0.00;65763.66;10237893;28;20081;-72
2020/12/11 19:17:54;;;;;;;125.32;56.25;;;;;;;-144.15;0.00;65763.66;10238880;28;20494;-73
2020/12/11 19:22:52;;;;;;;118.88;58.20;;;;;;;-144.15;0.00;65763.66;10237991;28;20529;-73
2020/12/11 19:27:51;;;;;;;112.97;54.45;;;;;;;-144.15;0.00;65763.66;10237914;28;20073;-73
2020/12/11 19:32:49;;;;;;;149.27;63.42;;;;;;;-144.15;0.00;65763.66;10254028;28;20489;-72
2020/12/11 19:37:47;;;;;;;98.03;50.25;;;;;;;-144.15;0.00;65763.66;10260817;28;20041;-73
2020/12/11 19:42:46;;;;;;;165.35;67.15;;;;;;;-144.15;0.00;65763.66;10237040;28;20081;-73
2020/12/11 19:47:45;;;;;;;135.10;46.08;;;;;;;-144.15;0.00;65763.66;10237137;28;20065;-73
2020/12/11 19:52:43;;;;;;;123.47;53.90;;;;;;;-144.15;0.00;65763.66;10237311;28;20529;-71
2020/12/11 19:57:40;;;;;;;125.22;43.47;;;;;;;-144.15;0.00;65763.66;10236408;28;20046;-70
2020/12/11 20:02:38;;;;;;;68.82;38.38;;;;;;;-144.15;0.00;65763.66;10236345;28;20096;-73
2020/12/11 20:13:02;;;;;;;144.18;60.65;;;;;;;-144.15;0.00;65763.66;10236006;28;20529;-71
2020/12/11 20:18:00;;;;;;;160.68;58.10;;;;;;;-144.15;0.00;65763.66;10236124;28;20088;-73
2020/12/11 20:22:59;;;;;;;90.25;43.47;;;;;;;-144.15;0.00;65763.66;10235625;28;20080;-73
2020/12/11 20:27:57;;;;;;;121.53;74.07;;;;;;;-144.15;0.00;65763.66;10235889;28;20084;-73
2020/12/11 20:32:55;;;;;;;95.53;53.90;;;;;;;-144.15;0.00;65763.66;10252319;28;20072;-74
2020/12/11 20:37:54;;;;;;;65.53;30.85;;;;;;;-144.15;0.00;65763.66;10257982;28;20045;-73
2020/12/11 20:42:53;;;;;;;99.85;58.17;;;;;;;-144.15;0.00;65763.66;10235024;28;20077;-73
2020/12/11 20:47:51;;;;;;;72.18;40.15;;;;;;;-144.15;0.00;65763.66;10234372;28;20521;-74
2020/12/11 20:52:49;;;;;;;54.17;26.50;;;;;;;-144.15;0.00;65763.66;10234376;28;20065;-71
2020/12/11 20:57:50;;;;;;;65.57;25.98;;;;;;;-144.15;0.00;65763.66;10221329;28;20065;-72
2020/12/11 21:02:49;;;;;;;53.55;22.67;;;;;;;-144.15;0.00;65763.66;10242858;28;20087;-73
2020/12/11 21:07:47;;;;;;;35.28;21.55;;;;;;;-144.15;0.00;65763.66;10233636;28;20462;-72
2020/12/11 21:12:45;;;;;;;38.47;19.00;;;;;;;-144.15;0.00;65763.66;10241592;28;20103;-73
2020/12/11 21:17:42;;;;;;;43.58;22.15;;;;;;;-144.15;0.00;65763.66;10236259;28;20077;-73
2020/12/11 21:22:41;;;;;;;92.07;30.70;;;;;;;-144.15;0.00;65763.66;10243011;28;20077;-72
2020/12/11 21:27:39;;;;;;;67.22;26.55;;;;;;;-144.15;0.00;65763.66;10233350;28;20077;-73
2020/12/11 21:32:42;;;;;;;51.97;27.90;;;;;;;-144.15;0.00;65763.66;10241362;28;20076;-74
2020/12/11 21:37:41;;;;;;;74.53;32.67;;;;;;;-144.15;0.00;65763.66;10239600;28;20116;-74
2020/12/11 21:42:39;;;;;;;47.55;20.40;;;;;;;-144.15;0.00;65763.66;10240852;28;20073;-74
2020/12/11 21:47:37;;;;;;;38.70;19.05;;;;;;;-144.15;0.00;65763.66;10240397;28;20080;-72
2020/12/11 21:52:40;;;;;;;56.65;22.17;;;;;;;-144.15;0.00;65763.66;10239337;28;20077;-73
2020/12/11 21:57:39;;;;;;;41.75;17.20;;;;;;;-144.15;0.00;65763.66;10232463;28;20427;-73
2020/12/11 22:02:37;;;;;;;36.17;20.85;;;;;;;-144.15;0.00;65763.66;10241177;28;20514;-72
2020/12/11 22:07:35;;;;;;;44.13;26.02;;;;;;;-144.15;0.00;65763.66;10239748;28;20465;-73
2020/12/11 22:12:33;;;;;;;27.25;13.95;;;;;;;-144.15;0.00;65763.66;10240602;28;20091;-72
2020/12/11 22:17:31;;;;;;;27.33;13.40;;;;;;;-144.15;0.00;65763.66;10240498;28;20522;-73
2020/12/11 22:22:30;;;;;;;19.90;11.23;;;;;;;-144.15;0.00;65763.66;10231338;28;20073;-73
2020/12/11 22:27:27;;;;;;;30.67;13.93;;;;;;;-144.15;0.00;65763.66;10238508;28;20127;-74
2020/12/11 22:32:25;;;;;;;30.90;18.15;;;;;;;-144.15;0.00;65763.66;10239239;28;20092;-72
2020/12/11 22:37:24;;;;;;;46.72;21.85;;;;;;;-144.15;0.00;65763.66;10239608;28;20099;-72
2020/12/11 22:42:24;;;;;;;41.42;18.48;;;;;;;-144.15;0.00;65763.66;10239759;28;20064;-73
2020/12/11 22:47:22;;;;;;;31.27;12.95;;;;;;;-144.15;0.00;65763.66;10239054;28;20077;-73
2020/12/11 22:52:20;;;;;;;33.80;14.52;;;;;;;-144.15;0.00;65763.66;10243124;28;20076;-72
2020/12/11 22:57:19;;;;;;;36.25;15.35;;;;;;;-144.15;0.00;65763.66;10238728;28;20068;-73
2020/12/11 23:02:16;;;;;;;33.05;14.27;;;;;;;-144.15;0.00;65763.66;10238653;28;20045;-73
2020/12/11 23:07:15;;;;;;;23.30;13.88;;;;;;;-144.15;0.00;65763.66;10238164;28;20073;-73